Time;durP1;ratioP1;P1;durP2;ratioP2;P2;SDS_P1;SDS_P2;PMS_P1;PMS_P2;Temp;Humidity;BMP_temperature;BMP_pressure;BME280_temperature;BME280_humidity;BME280_pressure;Samples;Min_cycle;Max_cycle;Signal;HPM_P1;HPM_P2
2021/05/27 00:01:05;;;;;;;5.07;2.17;;;9.80;90.80;;;;;;5033540;28;20179;-87
2021/05/27 00:03:30;;;;;;;6.87;2.20;;;9.70;91.00;;;;;;5016200;28;20204;-87
2021/05/27 00:05:56;;;;;;;9.27;2.83;;;9.80;91.20;;;;;;5015570;28;20168;-87
2021/05/27 00:08:22;;;;;;;8.77;3.40;;;9.80;91.60;;;;;;5015434;28;20187;-87
2021/05/27 00:10:47;;;;;;;3.33;2.13;;;9.80;91.90;;;;;;5033111;28;20541;-87
2021/05/27 00:13:13;;;;;;;5.63;2.57;;;9.80;91.60;;;;;;5015277;28;20738;-87
2021/05/27 00:15:40;;;;;;;9.27;3.07;;;9.80;91.40;;;;;;5015618;28;20181;-87
2021/05/27 00:18:05;;;;;;;4.13;2.37;;;9.70;90.90;;;;;;5032912;28;20201;-87
2021/05/27 00:20:31;;;;;;;6.90;2.53;;;9.70;90.90;;;;;;5018450;28;20208;-90
2021/05/27 00:22:56;;;;;;;4.80;2.07;;;9.70;91.00;;;;;;5018824;28;20259;-89
2021/05/27 00:25:22;;;;;;;3.83;2.00;;;9.70;91.10;;;;;;5018918;28;20177;-89
2021/05/27 00:27:48;;;;;;;5.20;2.30;;;9.70;91.30;;;;;;5019204;28;20606;-89
2021/05/27 00:30:16;;;;;;;6.30;2.37;;;9.70;91.40;;;;;;5019727;28;20177;-89
2021/05/27 00:32:41;;;;;;;3.17;2.20;;;9.70;91.40;;;;;;5019094;28;20193;-90
2021/05/27 00:35:08;;;;;;;11.10;4.50;;;9.70;91.30;;;;;;5036738;28;20541;-89
2021/05/27 00:37:34;;;;;;;6.93;3.20;;;9.70;91.20;;;;;;5036418;28;20597;-89
2021/05/27 00:40:00;;;;;;;7.10;3.73;;;9.70;91.20;;;;;;5018571;28;20173;-88
2021/05/27 00:42:26;;;;;;;5.57;3.00;;;9.70;91.40;;;;;;5018640;28;20266;-88
2021/05/27 00:45:10;;;;;;;6.77;2.80;;;9.80;91.30;;;;;;5018511;28;20209;-89
2021/05/27 00:47:37;;;;;;;8.13;3.27;;;9.80;91.30;;;;;;5018494;28;20166;-89
2021/05/27 00:50:05;;;;;;;6.77;3.17;;;9.80;91.40;;;;;;5018355;28;20552;-89
2021/05/27 00:52:31;;;;;;;11.43;3.40;;;9.80;91.60;;;;;;5036228;28;20186;-89
2021/05/27 00:54:59;;;;;;;7.90;2.73;;;9.80;91.70;;;;;;5036118;28;20243;-88
2021/05/27 00:57:35;;;;;;;8.30;3.10;;;9.80;91.70;;;;;;5018251;28;20190;-89
2021/05/27 01:00:04;;;;;;;4.50;3.27;;;9.80;91.80;;;;;;5018233;28;20168;-89
2021/05/27 01:02:29;;;;;;;10.57;3.73;;;9.80;91.90;;;;;;5035851;28;20199;-87
2021/05/27 01:04:55;;;;;;;18.03;2.67;;;9.80;92.10;;;;;;5018311;28;20184;-89
2021/05/27 01:07:23;;;;;;;6.30;3.07;;;9.80;92.00;;;;;;5018097;28;20665;-89
2021/05/27 01:09:49;;;;;;;9.70;3.60;;;9.80;92.00;;;;;;5018144;28;20271;-87
2021/05/27 01:12:14;;;;;;;5.03;2.70;;;9.80;92.10;;;;;;5036065;28;20228;-89
2021/05/27 01:17:24;;;;;;;11.13;3.30;;;9.80;92.20;;;;;;5036133;28;20210;-89
2021/05/27 01:19:51;;;;;;;8.33;3.40;;;9.80;92.20;;;;;;5035627;28;20173;-89
2021/05/27 01:22:19;;;;;;;19.97;3.63;;;9.70;92.20;;;;;;5018173;28;20199;-89
2021/05/27 01:24:45;;;;;;;12.03;3.17;;;9.80;92.30;;;;;;5035409;28;20188;-89
2021/05/27 01:27:11;;;;;;;10.53;3.40;;;9.70;92.30;;;;;;5035826;28;20192;-89
2021/05/27 01:29:36;;;;;;;10.53;3.60;;;9.80;92.40;;;;;;5017756;28;20173;-89
2021/05/27 01:32:02;;;;;;;12.07;4.03;;;9.80;92.40;;;;;;5035329;28;20205;-87
2021/05/27 01:34:28;;;;;;;9.50;4.10;;;9.80;92.30;;;;;;5017626;28;20226;-87
2021/05/27 01:36:53;;;;;;;8.93;3.43;;;9.80;92.20;;;;;;5035309;28;20186;-88
2021/05/27 01:39:19;;;;;;;9.67;3.97;;;9.80;92.30;;;;;;5017642;28;20204;-89
2021/05/27 01:41:44;;;;;;;13.70;4.07;;;9.80;92.30;;;;;;5017409;28;20219;-89
2021/05/27 01:44:10;;;;;;;8.63;2.60;;;9.80;92.10;;;;;;5017608;28;20291;-89
2021/05/27 01:46:36;;;;;;;11.70;3.33;;;9.70;91.60;;;;;;5017433;28;20181;-89
2021/05/27 01:49:02;;;;;;;13.90;3.20;;;9.70;91.40;;;;;;5017399;28;20184;-89
2021/05/27 01:51:28;;;;;;;11.27;3.20;;;9.70;91.20;;;;;;5017292;28;20197;-89
2021/05/27 01:53:54;;;;;;;14.43;3.43;;;9.70;90.90;;;;;;5017239;28;20269;-89
2021/05/27 01:56:19;;;;;;;13.47;3.70;;;9.70;90.70;;;;;;5017250;28;20319;-89
2021/05/27 01:58:45;;;;;;;8.37;3.30;;;9.70;90.80;;;;;;5017281;28;20262;-89
2021/05/27 02:01:11;;;;;;;12.70;3.60;;;9.70;90.70;;;;;;5017016;28;20666;-89
2021/05/27 02:03:36;;;;;;;8.37;2.60;;;9.70;90.90;;;;;;5017035;28;20207;-87
2021/05/27 02:06:02;;;;;;;7.80;2.83;;;9.60;90.40;;;;;;5035034;28;20176;-87
2021/05/27 02:08:27;;;;;;;9.80;2.57;;;9.60;90.10;;;;;;5034675;28;20219;-89
2021/05/27 02:10:53;;;;;;;12.30;2.90;;;9.60;90.30;;;;;;5035090;28;20219;-89
2021/05/27 02:13:19;;;;;;;12.00;2.40;;;9.60;90.40;;;;;;5017297;28;20680;-89
2021/05/27 02:15:44;;;;;;;4.27;1.63;;;9.60;90.20;;;;;;5016962;28;20268;-89
2021/05/27 02:18:11;;;;;;;7.20;2.30;;;9.50;89.70;;;;;;5016825;28;20191;-89
2021/05/27 02:20:37;;;;;;;3.17;1.90;;;9.50;89.90;;;;;;5016805;28;20177;-89
2021/05/27 02:23:02;;;;;;;9.67;1.80;;;9.50;90.10;;;;;;5016697;28;20201;-89
2021/05/27 02:25:28;;;;;;;4.10;1.40;;;9.50;90.40;;;;;;5034364;28;20195;-89
2021/05/27 02:27:55;;;;;;;5.03;2.07;;;9.50;90.30;;;;;;5034319;28;20222;-89
2021/05/27 02:30:22;;;;;;;8.57;2.70;;;9.40;90.80;;;;;;5016492;28;20706;-89
2021/05/27 02:32:47;;;;;;;7.60;2.53;;;9.40;90.30;;;;;;5016520;28;20188;-89
2021/05/27 02:35:13;;;;;;;5.00;1.93;;;9.40;90.50;;;;;;5016605;28;20188;-89
2021/05/27 02:37:39;;;;;;;5.33;2.27;;;9.40;90.50;;;;;;5016483;28;20173;-89
2021/05/27 02:40:05;;;;;;;8.57;2.33;;;9.40;90.50;;;;;;5034074;28;20192;-89
2021/05/27 02:42:31;;;;;;;6.93;2.33;;;9.40;90.40;;;;;;5015862;28;20216;-89
2021/05/27 02:44:57;;;;;;;4.90;2.10;;;9.40;90.90;;;;;;5033909;28;20216;-89
2021/05/27 02:47:22;;;;;;;4.43;1.53;;;9.40;90.10;;;;;;5016350;28;20192;-89
2021/05/27 02:49:48;;;;;;;5.07;2.50;;;9.50;90.20;;;;;;5033979;28;20173;-88
2021/05/27 02:52:14;;;;;;;6.30;1.80;;;9.40;90.20;;;;;;5033796;28;20224;-88
2021/05/27 02:54:39;;;;;;;5.83;2.33;;;9.40;90.40;;;;;;5016156;28;20181;-89
2021/05/27 02:57:05;;;;;;;5.87;2.13;;;9.40;90.60;;;;;;5033799;28;20207;-89
2021/05/27 02:59:31;;;;;;;5.40;2.37;;;9.40;90.90;;;;;;5016437;28;20183;-89
2021/05/27 03:01:56;;;;;;;3.80;2.27;;;9.40;91.00;;;;;;5016631;28;20295;-89
2021/05/27 03:04:22;;;;;;;7.00;2.53;;;9.50;91.10;;;;;;5016047;28;20204;-89
2021/05/27 03:06:48;;;;;;;6.80;2.43;;;9.40;91.40;;;;;;5016012;28;20177;-89
2021/05/27 03:09:13;;;;;;;5.03;2.13;;;9.40;91.70;;;;;;5033906;28;20177;-89
2021/05/27 03:11:39;;;;;;;6.63;3.23;;;9.50;91.90;;;;;;5016151;28;20683;-88
2021/05/27 03:14:05;;;;;;;7.97;2.70;;;9.40;92.10;;;;;;5033476;28;20184;-88
2021/05/27 03:16:30;;;;;;;6.97;2.80;;;9.40;92.20;;;;;;5016106;28;20223;-88
2021/05/27 03:18:56;;;;;;;5.20;2.60;;;9.40;92.40;;;;;;5015903;28;20223;-88
2021/05/27 03:21:21;;;;;;;5.87;2.23;;;9.40;92.30;;;;;;5033371;28;20231;-88
2021/05/27 03:23:47;;;;;;;6.43;2.70;;;9.40;92.50;;;;;;5015770;28;20197;-88
2021/05/27 03:26:14;;;;;;;9.10;2.13;;;9.40;92.60;;;;;;5015709;28;20177;-88
2021/05/27 03:28:40;;;;;;;7.83;3.43;;;9.40;92.70;;;;;;5016559;28;20637;-88
2021/05/27 03:31:06;;;;;;;13.43;2.70;;;9.40;92.80;;;;;;5015578;28;20180;-88
2021/05/27 03:33:32;;;;;;;7.93;2.67;;;9.50;92.90;;;;;;5033282;28;20180;-88
2021/05/27 03:35:57;;;;;;;8.27;2.90;;;9.50;93.00;;;;;;5015571;28;20706;-88
2021/05/27 03:38:23;;;;;;;2.23;1.60;;;9.50;93.00;;;;;;5015587;28;20191;-88
2021/05/27 03:40:49;;;;;;;10.83;3.00;;;9.50;93.20;;;;;;5033201;28;20184;-88
2021/05/27 03:43:14;;;;;;;9.20;3.20;;;9.50;93.30;;;;;;5015287;28;20262;-88
2021/05/27 03:45:40;;;;;;;7.83;3.30;;;9.50;93.30;;;;;;5015597;28;20548;-88
2021/05/27 03:48:06;;;;;;;11.53;3.80;;;9.50;93.40;;;;;;5015438;28;20177;-88
2021/05/27 03:50:32;;;;;;;8.60;3.10;;;9.50;93.40;;;;;;5015513;28;20271;-88
2021/05/27 03:52:59;;;;;;;14.97;3.17;;;9.50;93.40;;;;;;5015436;28;20283;-88
2021/05/27 03:55:26;;;;;;;9.17;2.67;;;9.50;93.40;;;;;;5019075;28;20237;-88
2021/05/27 03:57:53;;;;;;;11.00;2.60;;;9.60;93.30;;;;;;5019400;28;20179;-88
2021/05/27 04:00:42;;;;;;;16.00;3.50;;;9.60;93.20;;;;;;5019435;28;20181;-89
2021/05/27 04:03:08;;;;;;;11.70;3.43;;;9.60;93.10;;;;;;5036951;28;20196;-89
2021/05/27 04:08:19;;;;;;;7.40;2.23;;;9.60;93.00;;;;;;5037264;28;20687;-89
2021/05/27 04:10:46;;;;;;;14.00;3.37;;;9.60;92.90;;;;;;5019253;28;20172;-88
2021/05/27 04:13:13;;;;;;;10.37;3.67;;;9.60;92.80;;;;;;5019096;28;20192;-88
2021/05/27 04:15:39;;;;;;;7.20;2.97;;;9.60;92.80;;;;;;5019225;28;20227;-89
2021/05/27 04:18:10;;;;;;;14.10;3.77;;;9.70;92.90;;;;;;5018981;28;20267;-89
2021/05/27 04:20:43;;;;;;;6.37;2.50;;;9.70;92.90;;;;;;5019342;28;20617;-89
2021/05/27 04:23:39;;;;;;;11.17;3.37;;;9.70;92.70;;;;;;5018897;28;20235;-89
2021/05/27 04:26:11;;;;;;;12.97;4.13;;;9.60;92.80;;;;;;5036821;28;20205;-89
2021/05/27 04:28:37;;;;;;;7.33;2.33;;;9.70;92.80;;;;;;5036999;28;20636;-89
2021/05/27 04:31:11;;;;;;;11.00;3.07;;;9.70;92.90;;;;;;5018759;28;20177;-89
2021/05/27 04:33:44;;;;;;;13.70;4.10;;;9.70;93.00;;;;;;5018890;28;20172;-89
2021/05/27 04:36:11;;;;;;;8.13;2.97;;;9.70;93.00;;;;;;5036521;28;20633;-89
2021/05/27 04:38:37;;;;;;;9.97;3.30;;;9.70;93.00;;;;;;5018724;28;20219;-89
2021/05/27 04:41:04;;;;;;;12.43;3.33;;;9.70;93.00;;;;;;5018576;28;20551;-89
2021/05/27 04:43:29;;;;;;;12.23;3.03;;;9.70;93.20;;;;;;5036144;28;20695;-89
2021/05/27 04:45:55;;;;;;;10.50;4.10;;;9.70;93.30;;;;;;5018549;28;20292;-89
2021/05/27 04:48:21;;;;;;;8.97;3.40;;;9.70;93.30;;;;;;5018591;28;20540;-89
2021/05/27 04:50:49;;;;;;;9.10;3.60;;;9.80;93.40;;;;;;5018471;28;20177;-89
2021/05/27 04:53:19;;;;;;;8.10;3.40;;;9.80;93.30;;;;;;5018429;28;20204;-89
2021/05/27 04:55:45;;;;;;;9.77;3.17;;;9.80;93.20;;;;;;5036082;28;20547;-89
2021/05/27 04:58:11;;;;;;;10.00;3.17;;;9.80;93.20;;;;;;5018441;28;20656;-89
2021/05/27 05:00:36;;;;;;;1.93;1.07;;;9.80;93.40;;;;;;5018301;28;20271;-89
2021/05/27 05:03:03;;;;;;;12.80;3.87;;;9.80;93.30;;;;;;5035731;28;20212;-89
2021/05/27 05:05:30;;;;;;;8.53;3.33;;;9.80;93.30;;;;;;5017798;28;20176;-89
2021/05/27 05:07:55;;;;;;;8.00;2.80;;;9.80;93.30;;;;;;5018193;28;20220;-89
2021/05/27 05:10:23;;;;;;;12.20;3.67;;;9.80;93.30;;;;;;5035796;28;20544;-89
2021/05/27 05:12:50;;;;;;;8.17;3.13;;;9.80;93.30;;;;;;5035964;28;20218;-89
2021/05/27 05:15:19;;;;;;;11.70;3.17;;;9.90;93.30;;;;;;5018050;28;20184;-89
2021/05/27 05:17:56;;;;;;;12.23;3.70;;;9.90;93.40;;;;;;5035711;28;20538;-89
2021/05/27 05:20:32;;;;;;;8.40;3.20;;;9.90;93.40;;;;;;5036169;28;20168;-89
2021/05/27 05:22:59;;;;;;;4.93;2.60;;;9.90;93.40;;;;;;5017831;28;20224;-89
2021/05/27 05:25:26;;;;;;;11.00;2.77;;;10.00;93.60;;;;;;5018176;28;20175;-89
2021/05/27 05:27:53;;;;;;;6.50;3.20;;;10.00;93.60;;;;;;5035613;28;20173;-90
2021/05/27 05:30:19;;;;;;;11.40;4.03;;;10.00;93.60;;;;;;5017762;28;20189;-89
2021/05/27 05:32:47;;;;;;;8.73;3.90;;;10.00;93.60;;;;;;5035226;28;20196;-89
2021/05/27 05:35:14;;;;;;;10.63;4.13;;;10.10;93.60;;;;;;5017571;28;20212;-89
2021/05/27 05:37:40;;;;;;;8.80;3.73;;;10.00;93.60;;;;;;5017630;28;20173;-89
2021/05/27 05:40:09;;;;;;;10.40;4.83;;;10.10;93.70;;;;;;5017666;28;20187;-89
2021/05/27 05:42:35;;;;;;;16.00;5.40;;;10.10;93.90;;;;;;5059671;22;20250;-86
2021/05/27 05:45:01;;;;;;;15.23;5.90;;;10.20;94.00;;;;;;5034995;28;20205;-85
2021/05/27 05:47:26;;;;;;;22.03;6.90;;;10.20;94.00;;;;;;5033741;28;20177;-85
2021/05/27 05:49:52;;;;;;;24.30;5.87;;;10.20;93.90;;;;;;5017040;28;20637;-85
2021/05/27 05:52:18;;;;;;;24.77;6.57;;;10.30;93.80;;;;;;5034744;28;20194;-85
2021/05/27 05:54:43;;;;;;;20.00;5.60;;;10.30;93.70;;;;;;5034913;28;20183;-86
2021/05/27 05:57:09;;;;;;;16.90;6.03;;;10.40;93.70;;;;;;5034830;28;20180;-85
2021/05/27 05:59:34;;;;;;;15.10;6.60;;;10.50;93.70;;;;;;5016879;28;20237;-86
2021/05/27 06:02:04;;;;;;;17.87;5.83;;;10.50;93.60;;;;;;5016848;28;20544;-86
2021/05/27 06:04:31;;;;;;;23.43;7.10;;;10.50;93.50;;;;;;5034504;28;20188;-86
2021/05/27 06:06:57;;;;;;;17.60;5.33;;;10.50;93.50;;;;;;5035066;28;20179;-86
2021/05/27 06:09:24;;;;;;;17.27;5.77;;;10.60;93.50;;;;;;5016662;28;20168;-85
2021/05/27 06:11:50;;;;;;;17.80;6.30;;;10.70;93.60;;;;;;5034444;28;20172;-85
2021/05/27 06:14:15;;;;;;;13.77;5.20;;;10.80;93.40;;;;;;5017259;28;20177;-86
2021/05/27 06:16:41;;;;;;;19.27;5.17;;;10.80;93.50;;;;;;5015935;28;20176;-85
2021/05/27 06:19:07;;;;;;;13.30;4.70;;;10.80;93.40;;;;;;5034331;28;20717;-86
2021/05/27 06:21:33;;;;;;;15.23;4.60;;;10.80;93.30;;;;;;5034281;28;20169;-85
2021/05/27 06:23:58;;;;;;;14.33;4.07;;;10.80;93.30;;;;;;5016475;28;20243;-85
2021/05/27 06:26:24;;;;;;;16.37;5.00;;;10.80;93.10;;;;;;5034304;28;20556;-85
2021/05/27 06:28:50;;;;;;;16.03;4.87;;;10.80;92.80;;;;;;5034165;28;20611;-86
2021/05/27 06:31:15;;;;;;;18.57;4.97;;;10.90;92.50;;;;;;5034160;28;20173;-85
2021/05/27 06:33:41;;;;;;;14.77;4.00;;;10.90;92.40;;;;;;5034052;28;20625;-86
2021/05/27 06:36:07;;;;;;;16.17;5.37;;;11.00;92.70;;;;;;5033985;28;20203;-86
2021/05/27 06:38:33;;;;;;;14.53;4.23;;;11.00;92.60;;;;;;5034034;28;20211;-85
2021/05/27 06:40:59;;;;;;;15.83;4.43;;;11.10;92.70;;;;;;5034007;28;20614;-86
2021/05/27 06:43:24;;;;;;;11.77;3.80;;;11.20;92.70;;;;;;5015949;28;20235;-86
2021/05/27 06:45:50;;;;;;;18.07;3.93;;;11.20;92.10;;;;;;5034117;28;20683;-86
2021/05/27 06:48:15;;;;;;;17.10;5.00;;;11.30;92.00;;;;;;5033828;28;20204;-86
2021/05/27 06:50:41;;;;;;;12.77;4.37;;;11.40;92.20;;;;;;5033865;28;20583;-86
2021/05/27 06:53:09;;;;;;;13.27;3.33;;;11.40;92.10;;;;;;5033685;28;20728;-86
2021/05/27 06:55:37;;;;;;;13.73;3.20;;;11.40;92.10;;;;;;5016055;28;20177;-85
2021/05/27 06:58:04;;;;;;;14.80;3.73;;;11.30;91.40;;;;;;5015894;28;20177;-85
2021/05/27 07:00:30;;;;;;;8.77;3.43;;;11.30;90.90;;;;;;5033660;28;20179;-85
2021/05/27 07:02:56;;;;;;;9.83;3.60;;;11.30;91.10;;;;;;5015710;28;20576;-86
2021/05/27 07:05:22;;;;;;;10.57;3.73;;;11.30;91.40;;;;;;5033537;28;20172;-87
2021/05/27 07:07:48;;;;;;;14.80;3.10;;;11.30;91.30;;;;;;5015913;28;20173;-86
2021/05/27 07:10:17;;;;;;;12.00;3.30;;;11.30;91.40;;;;;;5033527;28;20573;-86
2021/05/27 07:12:50;;;;;;;11.70;3.67;;;11.30;91.40;;;;;;5015740;28;20192;-86
2021/05/27 07:15:17;;;;;;;11.03;3.77;;;11.40;91.40;;;;;;5016326;28;20177;-86
2021/05/27 07:17:43;;;;;;;11.43;3.57;;;11.40;91.20;;;;;;5015660;28;20168;-86
2021/05/27 07:20:09;;;;;;;13.17;3.33;;;11.40;91.20;;;;;;5033309;28;20251;-86
2021/05/27 07:22:35;;;;;;;6.03;3.13;;;11.50;90.90;;;;;;5033246;28;20246;-86
2021/05/27 07:25:00;;;;;;;13.37;3.13;;;11.60;90.70;;;;;;5015508;28;20569;-85
2021/05/27 07:27:26;;;;;;;6.50;2.60;;;11.70;90.10;;;;;;5015388;28;20173;-86
2021/05/27 07:29:51;;;;;;;7.30;3.17;;;12.00;89.50;;;;;;5033270;28;20173;-85
2021/05/27 07:32:17;;;;;;;5.23;2.73;;;12.00;87.60;;;;;;5015434;28;20192;-85
2021/05/27 07:34:46;;;;;;;4.87;2.23;;;11.90;87.00;;;;;;5015403;28;20656;-86
2021/05/27 07:37:12;;;;;;;8.50;2.60;;;11.90;87.80;;;;;;5015451;28;20219;-85
2021/05/27 07:39:38;;;;;;;10.40;2.77;;;11.90;88.00;;;;;;5033076;28;20649;-86
2021/05/27 07:42:06;;;;;;;10.70;3.50;;;11.80;88.10;;;;;;5015944;28;20208;-85
2021/05/27 07:44:33;;;;;;;7.07;3.10;;;11.80;87.80;;;;;;5015841;28;20200;-85
2021/05/27 07:47:01;;;;;;;9.93;3.47;;;11.80;88.00;;;;;;5016504;28;20172;-86
2021/05/27 07:49:30;;;;;;;9.27;2.93;;;11.90;87.70;;;;;;5015700;28;20176;-85
2021/05/27 07:51:58;;;;;;;7.67;3.07;;;11.70;87.70;;;;;;5032951;28;20185;-86
2021/05/27 07:54:25;;;;;;;6.90;3.00;;;11.70;88.00;;;;;;5015502;28;20263;-86
2021/05/27 07:56:53;;;;;;;10.83;3.10;;;11.80;88.60;;;;;;5015352;28;20177;-86
2021/05/27 07:59:20;;;;;;;13.27;3.17;;;11.80;88.90;;;;;;5032923;28;20200;-86
2021/05/27 08:01:49;;;;;;;8.90;2.93;;;11.80;88.60;;;;;;5033063;28;20604;-85
2021/05/27 08:04:21;;;;;;;10.20;2.80;;;11.70;88.50;;;;;;5032676;28;20208;-86
2021/05/27 08:06:49;;;;;;;4.67;2.07;;;11.70;88.90;;;;;;5014642;28;20203;-86
2021/05/27 08:09:15;;;;;;;8.03;3.00;;;11.70;89.30;;;;;;5015154;28;20184;-86
2021/05/27 08:11:43;;;;;;;7.07;2.70;;;11.60;89.40;;;;;;5032819;28;20203;-85
2021/05/27 08:14:11;;;;;;;10.60;3.57;;;11.60;89.30;;;;;;5032694;28;20173;-85
2021/05/27 08:16:38;;;;;;;5.07;2.50;;;11.60;89.30;;;;;;5032640;28;20677;-85
2021/05/27 08:19:09;;;;;;;2.73;1.83;;;11.60;89.40;;;;;;5032937;28;20184;-85
2021/05/27 08:21:35;;;;;;;6.83;2.37;;;11.50;89.10;;;;;;5032606;28;20173;-85
2021/05/27 08:24:01;;;;;;;8.97;2.47;;;11.60;89.40;;;;;;5014995;28;20201;-86
2021/05/27 08:26:26;;;;;;;7.40;2.10;;;11.50;89.70;;;;;;5014913;28;20531;-85
2021/05/27 08:28:52;;;;;;;7.33;2.60;;;11.40;90.00;;;;;;5032625;28;20180;-85
2021/05/27 08:31:19;;;;;;;8.33;2.90;;;11.40;90.10;;;;;;5032815;28;20165;-85
2021/05/27 08:33:47;;;;;;;9.77;2.83;;;11.30;90.20;;;;;;5014804;28;20288;-85
2021/05/27 08:36:13;;;;;;;9.03;3.13;;;11.40;90.70;;;;;;5032855;28;20529;-85
2021/05/27 08:38:39;;;;;;;6.07;2.60;;;11.40;90.80;;;;;;5032550;28;20169;-86
2021/05/27 08:41:04;;;;;;;6.60;2.97;;;11.50;90.80;;;;;;5035041;28;20693;-85
2021/05/27 08:43:32;;;;;;;9.80;3.17;;;11.40;90.70;;;;;;5035823;28;20208;-85
2021/05/27 08:46:03;;;;;;;9.70;3.60;;;11.30;90.60;;;;;;5018571;28;20173;-85
2021/05/27 08:48:28;;;;;;;10.67;3.77;;;11.30;90.70;;;;;;5036500;28;20606;-86
2021/05/27 08:50:55;;;;;;;8.53;3.30;;;11.50;90.80;;;;;;5036310;28;20200;-85
2021/05/27 08:53:21;;;;;;;10.20;3.23;;;11.40;90.70;;;;;;5018169;28;20246;-85
2021/05/27 08:55:48;;;;;;;7.83;3.40;;;11.50;90.70;;;;;;5035858;28;20176;-85
2021/05/27 08:58:15;;;;;;;6.97;3.10;;;11.50;90.80;;;;;;5018192;28;20184;-86
2021/05/27 09:00:42;;;;;;;9.40;3.47;;;11.50;91.00;;;;;;5035739;28;20670;-85
2021/05/27 09:03:10;;;;;;;8.03;3.20;;;11.50;91.00;;;;;;5017808;28;20246;-85
2021/05/27 09:05:38;;;;;;;7.07;3.33;;;11.60;90.90;;;;;;5035722;28;20172;-84
2021/05/27 09:08:30;;;;;;;13.57;3.83;;;11.60;90.80;;;;;;5035643;28;20165;-85
2021/05/27 09:11:09;;;;;;;14.07;4.57;;;11.70;90.80;;;;;;5035824;28;20171;-87
2021/05/27 09:13:58;;;;;;;8.43;3.73;;;11.70;90.60;;;;;;5017860;28;20200;-86
2021/05/27 09:16:26;;;;;;;5.77;3.10;;;11.70;90.40;;;;;;5035815;28;20219;-86
2021/05/27 09:18:54;;;;;;;5.53;2.80;;;11.80;89.90;;;;;;5017707;28;20176;-85
2021/05/27 09:21:38;;;;;;;6.73;2.80;;;11.70;89.10;;;;;;5017754;28;20181;-86
2021/05/27 09:24:05;;;;;;;5.10;2.70;;;11.70;88.70;;;;;;5035321;28;20250;-86
2021/05/27 09:26:31;;;;;;;8.00;3.20;;;11.70;88.90;;;;;;5035494;28;20214;-85
2021/05/27 09:29:12;;;;;;;9.83;4.10;;;11.70;89.10;;;;;;5017655;28;20172;-86
2021/05/27 09:31:56;;;;;;;10.80;6.10;;;11.80;89.00;;;;;;5035220;28;20165;-85
2021/05/27 09:34:41;;;;;;;9.13;5.30;;;11.90;89.30;;;;;;5017488;28;20171;-86
2021/05/27 09:37:31;;;;;;;12.37;5.77;;;12.00;89.60;;;;;;5035084;28;20232;-86
2021/05/27 09:40:05;;;;;;;7.07;5.00;;;12.20;90.00;;;;;;5017442;28;20609;-86
2021/05/27 09:42:49;;;;;;;4.63;3.70;;;12.30;89.80;;;;;;5035089;28;20212;-85
2021/05/27 09:45:17;;;;;;;4.07;3.67;;;12.50;88.50;;;;;;5035372;28;20277;-86
2021/05/27 09:47:43;;;;;;;5.80;3.63;;;12.50;88.10;;;;;;5017239;28;20177;-85
2021/05/27 09:50:10;;;;;;;8.17;2.77;;;12.70;88.00;;;;;;5035036;28;20169;-86
2021/05/27 09:52:39;;;;;;;4.37;2.00;;;12.90;87.20;;;;;;5016111;28;20196;-86
2021/05/27 09:55:18;;;;;;;4.23;2.23;;;13.00;86.30;;;;;;5035670;28;20180;-85
2021/05/27 09:57:46;;;;;;;4.03;1.83;;;13.10;85.00;;;;;;5017304;28;20168;-85
2021/05/27 10:00:21;;;;;;;2.80;1.20;;;13.10;84.80;;;;;;5034975;28;20238;-86
2021/05/27 10:02:47;;;;;;;0.93;0.93;;;13.00;83.30;;;;;;5034879;28;20188;-86
2021/05/27 10:05:14;;;;;;;2.27;0.97;;;12.90;83.40;;;;;;5016959;28;20299;-86
2021/05/27 10:07:39;;;;;;;6.37;1.10;;;12.80;82.30;;;;;;5034605;28;20192;-86
2021/05/27 10:10:08;;;;;;;2.17;1.10;;;12.80;82.90;;;;;;5017454;28;20539;-86
2021/05/27 10:12:42;;;;;;;4.40;1.40;;;12.80;83.50;;;;;;5016629;28;20201;-86
2021/05/27 10:15:11;;;;;;;4.10;1.33;;;12.80;84.40;;;;;;5034545;28;20184;-86
2021/05/27 10:17:41;;;;;;;4.17;1.67;;;12.90;84.40;;;;;;5034646;28;20180;-86
2021/05/27 10:20:09;;;;;;;3.30;1.50;;;12.90;83.60;;;;;;5016628;28;20199;-85
2021/05/27 10:22:35;;;;;;;3.80;1.90;;;13.10;84.40;;;;;;5034288;28;20199;-85
2021/05/27 10:25:05;;;;;;;5.23;2.37;;;13.20;84.70;;;;;;5016383;28;20196;-86
2021/05/27 10:27:31;;;;;;;5.20;2.30;;;13.40;84.40;;;;;;5017688;28;20169;-85
2021/05/27 10:29:57;;;;;;;5.80;2.30;;;13.60;83.60;;;;;;5016976;28;20173;-89
2021/05/27 10:32:25;;;;;;;4.53;2.30;;;13.70;83.20;;;;;;5035348;28;20271;-86
2021/05/27 10:34:51;;;;;;;4.93;2.70;;;13.80;84.00;;;;;;5017028;28;20187;-86
2021/05/27 10:37:48;;;;;;;4.90;2.47;;;13.80;83.10;;;;;;5034342;28;20251;-84
2021/05/27 10:40:22;;;;;;;4.00;1.70;;;13.90;82.90;;;;;;5018296;28;20196;-84
2021/05/27 10:43:10;;;;;;;2.50;1.40;;;13.80;78.70;;;;;;5033822;28;20684;-85
2021/05/27 10:45:59;;;;;;;2.93;1.80;;;13.70;79.80;;;;;;5016324;28;20260;-84
2021/05/27 10:48:30;;;;;;;3.20;1.93;;;13.50;81.20;;;;;;5016298;28;20652;-84
2021/05/27 10:53:38;;;;;;;3.57;1.53;;;13.40;80.90;;;;;;5034833;28;20734;-84
2021/05/27 10:56:05;;;;;;;2.30;1.40;;;13.30;81.30;;;;;;5016731;28;20215;-84
2021/05/27 10:58:49;;;;;;;3.10;1.40;;;13.00;82.70;;;;;;5016647;28;20181;-84
2021/05/27 11:01:17;;;;;;;3.63;1.53;;;12.70;83.30;;;;;;5034701;28;20184;-85
2021/05/27 11:03:47;;;;;;;1.93;1.30;;;12.50;84.00;;;;;;5033555;28;20628;-85
2021/05/27 11:06:28;;;;;;;3.53;1.40;;;12.30;84.60;;;;;;5033951;28;20164;-85
2021/05/27 11:09:23;;;;;;;3.17;1.73;;;12.30;86.40;;;;;;5016124;28;20199;-84
2021/05/27 11:11:56;;;;;;;2.50;1.43;;;12.30;87.10;;;;;;5016079;28;20252;-84
2021/05/27 11:14:36;;;;;;;2.97;1.20;;;12.50;86.60;;;;;;5033707;28;20621;-85
2021/05/27 11:17:01;;;;;;;3.90;1.83;;;12.70;84.40;;;;;;5033928;28;20157;-86
2021/05/27 11:22:34;;;;;;;4.63;1.33;;;12.70;82.40;;;;;;5033857;28;20747;-84
2021/05/27 11:27:45;;;;;;;3.03;1.60;;;12.90;83.00;;;;;;5033547;28;20667;-84
2021/05/27 11:30:26;;;;;;;6.53;1.63;;;13.10;83.40;;;;;;5033305;28;20164;-85
2021/05/27 11:33:00;;;;;;;3.10;1.63;;;13.20;84.00;;;;;;5033352;28;20203;-85
2021/05/27 11:35:28;;;;;;;5.97;1.70;;;13.60;85.30;;;;;;5033277;28;20164;-84
2021/05/27 11:37:55;;;;;;;2.70;1.50;;;13.90;81.80;;;;;;5015344;28;20226;-83
2021/05/27 11:40:23;;;;;;;4.70;1.57;;;14.00;78.40;;;;;;5015427;28;20271;-85
2021/05/27 11:42:54;;;;;;;3.60;1.07;;;14.10;79.10;;;;;;5103973;23;20317;-89
2021/05/27 11:45:22;;;;;;;3.30;1.40;;;14.20;75.20;;;;;;5015501;28;20200;-89
2021/05/27 11:48:25;;;;;;;2.50;1.23;;;14.40;77.70;;;;;;5015718;28;20708;-89
2021/05/27 11:51:18;;;;;;;4.00;1.27;;;14.60;76.50;;;;;;5017096;28;20246;-92
2021/05/27 11:53:52;;;;;;;4.47;1.60;;;14.70;78.00;;;;;;5015949;28;20188;-92
2021/05/27 11:56:44;;;;;;;2.57;1.30;;;14.80;75.90;;;;;;5016158;28;20175;-92
2021/05/27 11:59:18;;;;;;;2.33;0.90;;;14.80;77.80;;;;;;5016153;28;20180;-92
2021/05/27 12:01:57;;;;;;;2.53;1.20;;;14.90;75.00;;;;;;5015835;28;20184;-92
2021/05/27 12:04:24;;;;;;;1.13;0.90;;;14.80;71.20;;;;;;5016057;28;20180;-92
2021/05/27 12:06:55;;;;;;;3.53;1.20;;;14.80;70.80;;;;;;5016198;28;20181;-92
2021/05/27 12:09:30;;;;;;;3.53;1.53;;;14.70;71.90;;;;;;5016055;28;20238;-92
2021/05/27 12:11:58;;;;;;;3.47;1.03;;;14.60;74.70;;;;;;5016160;28;20168;-92
2021/05/27 12:14:24;;;;;;;3.53;1.37;;;14.50;76.20;;;;;;5016240;28;20228;-92
2021/05/27 12:16:53;;;;;;;2.43;1.00;;;14.70;75.70;;;;;;5019689;28;20177;-92
2021/05/27 12:19:19;;;;;;;1.27;0.87;;;14.60;73.10;;;;;;5019728;28;20173;-92
2021/05/27 12:21:55;;;;;;;1.70;1.10;;;15.00;75.70;;;;;;5019775;28;20176;-92
2021/05/27 12:24:28;;;;;;;3.03;1.30;;;15.10;73.90;;;;;;5019524;28;20184;-92
2021/05/27 12:26:56;;;;;;;3.23;1.40;;;15.30;74.40;;;;;;5019632;28;20628;-91
2021/05/27 12:29:22;;;;;;;3.93;1.50;;;15.30;73.50;;;;;;5019645;28;20779;-92
2021/05/27 12:31:49;;;;;;;6.20;1.63;;;15.50;72.60;;;;;;5019285;28;20180;-92
2021/05/27 12:34:16;;;;;;;4.70;1.60;;;15.60;74.00;;;;;;5019079;28;20208;-92
2021/05/27 12:37:01;;;;;;;5.68;1.52;;;15.80;73.90;;;;;;5019167;28;20203;-92
2021/05/27 12:39:36;;;;;;;4.22;2.00;;;15.90;73.90;;;;;;5019212;28;20734;-92
2021/05/27 12:42:08;;;;;;;1.77;1.27;;;15.50;72.70;;;;;;5019210;28;20188;-92
2021/05/27 12:44:42;;;;;;;7.80;2.00;;;15.30;71.80;;;;;;5019174;28;20667;-92
2021/05/27 12:47:21;;;;;;;3.97;1.85;;;15.40;72.70;;;;;;5019233;28;20177;-92
2021/05/27 12:49:52;;;;;;;3.13;1.63;;;15.40;73.10;;;;;;5018962;28;20203;-92
2021/05/27 12:52:43;;;;;;;3.97;1.95;;;15.30;72.80;;;;;;5018826;28;20201;-92
2021/05/27 12:55:10;;;;;;;2.55;1.48;;;15.10;72.30;;;;;;5018823;28;20623;-91
2021/05/27 12:57:50;;;;;;;5.07;2.13;;;14.80;73.00;;;;;;5018935;28;20184;-92
2021/05/27 13:00:16;;;;;;;5.47;2.00;;;14.80;73.80;;;;;;5018983;28;20267;-92
2021/05/27 13:02:41;;;;;;;4.15;1.98;;;14.80;74.40;;;;;;5018671;28;20696;-92
2021/05/27 13:05:20;;;;;;;3.23;1.93;;;14.70;75.30;;;;;;5018860;28;20199;-91
2021/05/27 13:07:59;;;;;;;3.70;1.73;;;14.40;76.70;;;;;;5018771;28;20620;-91
2021/05/27 13:10:37;;;;;;;4.87;1.10;;;14.10;78.40;;;;;;5018629;28;20188;-91